Time;durP1;ratioP1;P1;durP2;ratioP2;P2;SDS_P1;SDS_P2;PMS_P1;PMS_P2;Temp;Humidity;BMP_temperature;BMP_pressure;BME280_temperature;BME280_humidity;BME280_pressure;Samples;Min_cycle;Max_cycle;Signal;HPM_P1;HPM_P2
2019/06/09 00:00:28;;;;;;;3.8;2.9;;;;;;;15.15;54.75879;967.3837;;;;
2019/06/09 00:02:48;;;;;;;4.4;2.9;;;;;;;15.17;54.29688;967.3965;;;;
2019/06/09 00:05:13;;;;;;;5.7;3.2;;;;;;;15.16;55.02832;967.3486;;;;
2019/06/09 00:07:40;;;;;;;5.5;3.3;;;;;;;15.16;54.59668;967.3625;;;;
2019/06/09 00:10:05;;;;;;;5.3;3.2;;;;;;;15.1;55.56641;967.3042;;;;
2019/06/09 00:12:32;;;;;;;6.1;3.6;;;;;;;15.05;55.61914;967.33;;;;
2019/06/09 00:14:57;;;;;;;6.1;3.6;;;;;;;15.02;55.55664;967.2894;;;;
2019/06/09 00:17:22;;;;;;;6.3;3.3;;;;;;;14.97;55.74707;967.3427;;;;
2019/06/09 00:19:48;;;;;;;4.9;3.3;;;;;;;14.96;55.65332;967.3098;;;;
2019/06/09 00:22:14;;;;;;;5.6;2.9;;;;;;;14.92;55.63574;967.332;;;;
2019/06/09 00:24:39;;;;;;;5.6;3.3;;;;;;;14.93;56.17383;967.375;;;;
2019/06/09 00:27:05;;;;;;;5;3.2;;;;;;;14.93;55.70898;967.3553;;;;
2019/06/09 00:29:30;;;;;;;8.6;3.1;;;;;;;14.93;56.42871;967.3028;;;;
2019/06/09 00:32:04;;;;;;;5.2;3.3;;;;;;;14.84;56.77637;967.2374;;;;
2019/06/09 00:34:23;;;;;;;5;3;;;;;;;14.76;56.33594;967.296;;;;
2019/06/09 00:36:48;;;;;;;3.8;2.7;;;;;;;14.97;55.10742;967.3147;;;;
2019/06/09 00:39:14;;;;;;;5.6;3.1;;;;;;;14.9;56.14551;967.3389;;;;
2019/06/09 00:41:48;;;;;;;4.7;3;;;;;;;14.9;55.00586;967.3811;;;;
2019/06/09 00:44:05;;;;;;;6.8;3.7;;;;;;;14.94;54.45313;967.3298;;;;
2019/06/09 00:46:30;;;;;;;7.3;4.1;;;;;;;14.93;55.01172;967.3603;;;;
2019/06/09 00:48:55;;;;;;;7.1;4.9;;;;;;;14.84;55.60254;967.3531;;;;
2019/06/09 00:51:20;;;;;;;7.4;4.8;;;;;;;14.8;55.93457;967.3524;;;;
2019/06/09 00:53:45;;;;;;;10.3;5.5;;;;;;;14.82;56.27441;967.3879;;;;
2019/06/09 00:56:10;;;;;;;9.9;4.9;;;;;;;14.82;56.86719;967.4208;;;;
2019/06/09 00:58:45;;;;;;;8.1;5.4;;;;;;;14.84;57.20703;967.4221;;;;
2019/06/09 01:01:10;;;;;;;8.1;5.1;;;;;;;14.61;58.07129;967.3708;;;;
2019/06/09 01:03:35;;;;;;;9.1;5.6;;;;;;;14.69;58.17676;967.3681;;;;
2019/06/09 01:06:14;;;;;;;9.2;5.8;;;;;;;14.43;59.10449;967.4192;;;;
2019/06/09 01:08:54;;;;;;;12.8;5.9;;;;;;;14.45;59.60742;967.3951;;;;
2019/06/09 01:11:21;;;;;;;8.7;5.4;;;;;;;14.49;59.29883;967.3865;;;;
2019/06/09 01:13:46;;;;;;;9.9;5;;;;;;;14.6;58.90625;967.3781;;;;
2019/06/09 01:16:11;;;;;;;9.5;5.4;;;;;;;14.38;60.83984;967.3766;;;;
2019/06/09 01:18:36;;;;;;;10.3;5.5;;;;;;;14.54;59.38672;967.3567;;;;
2019/06/09 01:21:13;;;;;;;9;5.4;;;;;;;14.49;59.60059;967.3579;;;;
2019/06/09 01:23:49;;;;;;;7.9;5.3;;;;;;;14.4;60.23828;967.3884;;;;
2019/06/09 01:26:22;;;;;;;8.9;5.4;;;;;;;14.25;61.22754;967.385;;;;
2019/06/09 01:28:55;;;;;;;7.9;4.8;;;;;;;14.13;60.7002;967.3805;;;;
2019/06/09 01:31:28;;;;;;;8.2;4.5;;;;;;;14.33;59.68262;967.3373;;;;
2019/06/09 01:33:53;;;;;;;7.4;4.7;;;;;;;14.36;59.60547;967.3075;;;;
2019/06/09 01:36:18;;;;;;;10.3;4.8;;;;;;;14.26;59.99805;967.2711;;;;
2019/06/09 01:38:43;;;;;;;8.9;4.7;;;;;;;14.38;59.45801;967.26;;;;
2019/06/09 01:41:08;;;;;;;9.3;5.2;;;;;;;14.28;60.89453;967.2634;;;;
2019/06/09 01:43:33;;;;;;;10.4;5;;;;;;;14.24;60.76074;967.3116;;;;
2019/06/09 01:45:58;;;;;;;6.8;4.5;;;;;;;14.36;59.29297;967.2985;;;;
2019/06/09 01:48:23;;;;;;;7;4.5;;;;;;;14.34;59.52148;967.2341;;;;
2019/06/09 01:50:48;;;;;;;7.8;4.5;;;;;;;14.22;59.71484;967.2853;;;;
2019/06/09 01:53:13;;;;;;;6.7;4.4;;;;;;;14.22;59.73633;967.255;;;;
2019/06/09 01:55:39;;;;;;;7.3;4.4;;;;;;;14.34;58.96484;967.2159;;;;
2019/06/09 01:58:04;;;;;;;6.9;4.4;;;;;;;14.41;58.5332;967.2483;;;;
2019/06/09 02:00:33;;;;;;;8.1;4.1;;;;;;;14.39;58.50684;967.2202;;;;
2019/06/09 02:02:58;;;;;;;7.5;4.4;;;;;;;14.16;59.47266;967.2187;;;;
2019/06/09 02:05:23;;;;;;;6.8;4.4;;;;;;;14.21;59.30566;967.1947;;;;
2019/06/09 02:07:53;;;;;;;6.2;4.2;;;;;;;14.02;60.17383;967.1981;;;;
2019/06/09 02:10:26;;;;;;;6.6;4.1;;;;;;;14.14;59.76074;967.21;;;;
2019/06/09 02:13:00;;;;;;;9.2;4.4;;;;;;;14.09;60.05469;967.2213;;;;
2019/06/09 02:15:25;;;;;;;7.4;4.3;;;;;;;14.03;60.1416;967.2206;;;;
2019/06/09 02:17:50;;;;;;;6.6;4.3;;;;;;;14.02;60.32422;967.1727;;;;
2019/06/09 02:20:15;;;;;;;7.8;4.4;;;;;;;13.88;60.9668;967.1883;;;;
2019/06/09 02:22:40;;;;;;;9.4;4.7;;;;;;;13.91;61.12109;967.2012;;;;
2019/06/09 02:25:09;;;;;;;7.4;4.3;;;;;;;13.6;62.00488;967.123;;;;
2019/06/09 02:27:35;;;;;;;8;4.3;;;;;;;13.65;62.47754;967.1241;;;;
2019/06/09 02:30:00;;;;;;;7.7;4.4;;;;;;;13.66;62.41895;967.0906;;;;
2019/06/09 02:32:25;;;;;;;6.5;3.9;;;;;;;13.62;63.21387;967.139;;;;
2019/06/09 02:35:06;;;;;;;7.9;4.2;;;;;;;13.56;63.49414;967.1248;;;;
2019/06/09 02:37:31;;;;;;;6.2;3.9;;;;;;;13.66;62.7207;967.1038;;;;
2019/06/09 02:39:56;;;;;;;9.1;4.1;;;;;;;13.7;62.7373;967.106;;;;
2019/06/09 02:42:21;;;;;;;8.2;3.9;;;;;;;13.6;63.75586;967.0804;;;;
2019/06/09 02:44:46;;;;;;;7.6;3.7;;;;;;;13.77;62.26074;967.0822;;;;
2019/06/09 02:47:11;;;;;;;6.7;4.1;;;;;;;13.55;63.81738;967.1408;;;;
2019/06/09 02:49:41;;;;;;;6.7;4;;;;;;;13.64;63.58789;967.1379;;;;
2019/06/09 02:52:06;;;;;;;6.7;4;;;;;;;13.43;64.37988;967.2034;;;;
2019/06/09 02:54:31;;;;;;;6.6;3.8;;;;;;;13.33;65.3125;967.1864;;;;
2019/06/09 02:56:56;;;;;;;7.8;4.3;;;;;;;13.22;65.34375;967.1308;;;;
2019/06/09 02:59:21;;;;;;;6.4;3.8;;;;;;;13.14;65.74902;967.1036;;;;
2019/06/09 03:01:46;;;;;;;6.3;4;;;;;;;13.35;65.23535;967.0313;;;;
2019/06/09 03:04:13;;;;;;;7.1;3.8;;;;;;;13.32;65.10449;967.0217;;;;
2019/06/09 03:06:38;;;;;;;8.8;3.9;;;;;;;13.23;65.46289;967.0057;;;;
2019/06/09 03:09:04;;;;;;;7;3.9;;;;;;;13.09;66.30957;966.9592;;;;
2019/06/09 03:11:28;;;;;;;7.3;4.2;;;;;;;13.15;65.62305;966.9547;;;;
2019/06/09 03:13:53;;;;;;;6.4;3.9;;;;;;;13.08;67.23242;966.9378;;;;
2019/06/09 03:16:18;;;;;;;6.3;4.1;;;;;;;12.93;66.72461;966.9068;;;;
2019/06/09 03:18:43;;;;;;;8.2;4.1;;;;;;;12.96;66.76367;966.873;;;;
2019/06/09 03:21:09;;;;;;;7.4;4.2;;;;;;;12.99;66.50098;966.8802;;;;
2019/06/09 03:23:34;;;;;;;9.2;4.6;;;;;;;12.96;67.35352;966.892;;;;
2019/06/09 03:25:59;;;;;;;7.6;4.3;;;;;;;13.01;67.22266;966.9398;;;;
2019/06/09 03:28:24;;;;;;;10;4.3;;;;;;;13.04;65.96582;966.9278;;;;
2019/06/09 03:30:49;;;;;;;6.8;3.9;;;;;;;12.98;66.03809;966.9317;;;;
2019/06/09 03:33:14;;;;;;;7.5;3.8;;;;;;;13.06;65.54004;966.8981;;;;
2019/06/09 03:35:39;;;;;;;6;3.9;;;;;;;13.23;64.85938;966.9;;;;
2019/06/09 03:38:04;;;;;;;7;3.7;;;;;;;12.98;65.33203;966.8254;;;;
2019/06/09 03:40:36;;;;;;;5.3;3.8;;;;;;;13.16;64.46582;966.9188;;;;
2019/06/09 03:43:01;;;;;;;4.9;3.7;;;;;;;13.12;64.72559;966.9255;;;;
2019/06/09 03:45:37;;;;;;;6;3.7;;;;;;;13.08;65.18359;966.9444;;;;
2019/06/09 03:48:02;;;;;;;5.2;3.7;;;;;;;13.2;64.63379;966.9141;;;;
2019/06/09 03:50:28;;;;;;;5.6;3.5;;;;;;;12.99;66.03809;966.9474;;;;
2019/06/09 03:52:53;;;;;;;6.6;3.9;;;;;;;12.81;67.36426;966.9565;;;;
2019/06/09 03:55:18;;;;;;;6.1;3.8;;;;;;;12.79;67.76758;966.9568;;;;
2019/06/09 03:57:43;;;;;;;6.7;3.9;;;;;;;12.87;67.83887;966.9562;;;;
2019/06/09 04:02:28;;;;;;;5.7;3.7;;;;;;;12.76;67.73828;966.9495;;;;
2019/06/09 04:04:53;;;;;;;9.7;4.4;;;;;;;12.87;67.09766;966.9301;;;;
2019/06/09 04:07:19;;;;;;;8.3;4.6;;;;;;;12.9;66.02637;966.9487;;;;
2019/06/09 04:09:55;;;;;;;7.6;4.1;;;;;;;12.92;66.13281;967.009;;;;
2019/06/09 04:12:20;;;;;;;9.6;4.4;;;;;;;12.93;66.58594;967.0352;;;;
2019/06/09 04:14:45;;;;;;;9.4;4.3;;;;;;;12.94;66.35547;967.0722;;;;
2019/06/09 04:17:10;;;;;;;6.4;4;;;;;;;13.02;66.79492;966.9587;;;;
2019/06/09 04:19:35;;;;;;;7.7;4.3;;;;;;;13;66.31836;966.9753;;;;
2019/06/09 04:22:00;;;;;;;8.4;4.2;;;;;;;12.9;66.8457;966.9609;;;;
2019/06/09 04:24:25;;;;;;;7;3.8;;;;;;;13.02;66.36621;966.9684;;;;
2019/06/09 04:26:51;;;;;;;5.7;3.8;;;;;;;13.07;66.33984;966.9702;;;;
2019/06/09 04:29:16;;;;;;;4.8;3.6;;;;;;;13.16;66.22656;966.9124;;;;
2019/06/09 04:31:41;;;;;;;6.1;3.8;;;;;;;13.17;65.85742;966.8661;;;;
2019/06/09 04:34:06;;;;;;;5.4;3.5;;;;;;;13.34;64.46973;966.895;;;;
2019/06/09 04:36:39;;;;;;;6;3.4;;;;;;;13.22;65.61035;966.8717;;;;
2019/06/09 04:39:04;;;;;;;5.2;3.3;;;;;;;13.31;63.46973;966.8718;;;;
2019/06/09 04:41:29;;;;;;;6.7;3.1;;;;;;;13.62;61.69531;966.8876;;;;
2019/06/09 04:43:54;;;;;;;6.2;3.4;;;;;;;13.4;64.01563;966.9028;;;;
2019/06/09 04:46:24;;;;;;;4.5;3.5;;;;;;;13.27;63.70605;966.8789;;;;
2019/06/09 04:48:49;;;;;;;4.5;3.1;;;;;;;13.4;61.91895;966.8466;;;;
2019/06/09 04:51:14;;;;;;;7;3.4;;;;;;;13.58;61.51563;966.8714;;;;
2019/06/09 04:53:39;;;;;;;5.3;3.6;;;;;;;13.45;61.43945;966.8074;;;;
2019/06/09 04:56:04;;;;;;;5.1;3.3;;;;;;;13.66;60.71582;966.8572;;;;
2019/06/09 04:58:29;;;;;;;6.6;3.7;;;;;;;13.44;61.94824;966.8269;;;;
2019/06/09 05:00:55;;;;;;;5.1;3.3;;;;;;;13.56;61.7793;966.8005;;;;
2019/06/09 05:03:20;;;;;;;5.1;3.3;;;;;;;13.7;61.76367;966.757;;;;
2019/06/09 05:05:45;;;;;;;5;3.4;;;;;;;13.74;63.61328;966.7432;;;;
2019/06/09 05:08:10;;;;;;;5.7;3.3;;;;;;;13.72;62.39355;966.7411;;;;
2019/06/09 05:10:35;;;;;;;6.1;3.7;;;;;;;13.79;62.94922;966.7762;;;;
2019/06/09 05:13:00;;;;;;;6.2;3.6;;;;;;;13.75;63.64941;966.7711;;;;
2019/06/09 05:15:25;;;;;;;5.3;3.2;;;;;;;13.86;62.06543;966.8552;;;;
2019/06/09 05:17:50;;;;;;;6;3.3;;;;;;;13.93;63.10742;966.8752;;;;
2019/06/09 05:20:15;;;;;;;5.5;3.4;;;;;;;14;62.02734;966.8553;;;;
2019/06/09 05:22:40;;;;;;;6;3.7;;;;;;;14.1;61.77441;966.8209;;;;
2019/06/09 05:25:05;;;;;;;9.3;3.8;;;;;;;14.26;61.41406;966.7537;;;;
2019/06/09 05:27:31;;;;;;;5.5;3.6;;;;;;;14.44;62.11328;966.7075;;;;
2019/06/09 05:29:56;;;;;;;6.7;3.5;;;;;;;14.42;61.04199;966.7106;;;;
2019/06/09 05:32:23;;;;;;;7.5;3.7;;;;;;;14.45;61.55664;966.6635;;;;
2019/06/09 05:34:48;;;;;;;5;3.2;;;;;;;14.63;60.08398;966.6493;;;;
2019/06/09 05:37:22;;;;;;;6.1;3.2;;;;;;;14.67;61.01758;966.6563;;;;
2019/06/09 05:39:58;;;;;;;6.6;3.4;;;;;;;14.84;59.32324;966.6696;;;;
2019/06/09 05:42:36;;;;;;;5.5;3.4;;;;;;;15.01;58.52051;966.7012;;;;
2019/06/09 05:45:08;;;;;;;5.6;3.5;;;;;;;15.03;59.09277;966.6178;;;;
2019/06/09 05:47:33;;;;;;;5.4;3.4;;;;;;;15.11;58.3125;966.623;;;;
2019/06/09 05:49:58;;;;;;;7.2;3.8;;;;;;;15.24;57.17773;966.6574;;;;
2019/06/09 05:52:24;;;;;;;5.2;3.2;;;;;;;15.24;58.24902;966.6927;;;;
2019/06/09 05:54:52;;;;;;;5;3.2;;;;;;;15.26;59.14746;966.6956;;;;
2019/06/09 05:57:19;;;;;;;5.2;3.6;;;;;;;15.43;57.92383;966.6375;;;;
2019/06/09 05:59:44;;;;;;;5.4;3.1;;;;;;;15.56;57.74512;966.6128;;;;
2019/06/09 06:02:10;;;;;;;5.5;3.3;;;;;;;15.71;57.74023;966.5416;;;;
2019/06/09 06:04:35;;;;;;;5;3.3;;;;;;;15.74;59.0498;966.5493;;;;
2019/06/09 06:07:00;;;;;;;5.3;3.4;;;;;;;15.92;57.89746;966.4656;;;;
2019/06/09 06:09:25;;;;;;;4.9;3.4;;;;;;;16.03;58.09766;966.4277;;;;
2019/06/09 06:11:50;;;;;;;7.4;3.5;;;;;;;16.18;57.37207;966.4244;;;;
2019/06/09 06:14:16;;;;;;;7.2;3.3;;;;;;;16.32;55.05664;966.4359;;;;
2019/06/09 06:16:58;;;;;;;6;3.2;;;;;;;16.45;54.71094;966.4796;;;;
2019/06/09 06:19:26;;;;;;;4.2;3;;;;;;;16.54;55.17871;966.4501;;;;
2019/06/09 06:21:51;;;;;;;4.9;3.1;;;;;;;16.61;55.53613;966.42;;;;
2019/06/09 06:24:16;;;;;;;5;3.1;;;;;;;16.75;54.20117;966.3585;;;;
2019/06/09 06:26:41;;;;;;;6.9;2.9;;;;;;;16.91;54.71094;966.2904;;;;
2019/06/09 06:29:06;;;;;;;4.7;3.2;;;;;;;16.91;55.16504;966.2731;;;;
2019/06/09 06:31:31;;;;;;;5.3;2.9;;;;;;;16.99;54.80273;966.2266;;;;
2019/06/09 06:33:56;;;;;;;5.9;2.9;;;;;;;17.21;53.78906;966.1666;;;;
2019/06/09 06:36:22;;;;;;;5;3;;;;;;;17.3;53.77734;966.1553;;;;
2019/06/09 06:38:47;;;;;;;4.6;3;;;;;;;17.41;54.49316;966.1656;;;;
2019/06/09 06:41:13;;;;;;;5.4;2.8;;;;;;;17.5;53.2998;966.2154;;;;
2019/06/09 06:43:38;;;;;;;5.9;2.9;;;;;;;17.8;52.2832;966.2238;;;;
2019/06/09 06:46:03;;;;;;;6;3;;;;;;;17.89;52.79688;966.2478;;;;
2019/06/09 06:48:29;;;;;;;5.8;3.1;;;;;;;18.08;51.95313;966.2511;;;;
2019/06/09 06:50:54;;;;;;;5.5;2.5;;;;;;;18.19;51.20508;966.2001;;;;
2019/06/09 06:53:20;;;;;;;6.9;2.4;;;;;;;18.37;52.44434;966.1572;;;;
2019/06/09 06:55:45;;;;;;;4.8;2.5;;;;;;;18.31;51.33496;966.1217;;;;
2019/06/09 06:58:21;;;;;;;6.1;2.2;;;;;;;18.27;51.44727;966.0869;;;;
2019/06/09 07:00:46;;;;;;;6;2.4;;;;;;;18.21;52.64746;966.1174;;;;
2019/06/09 07:03:15;;;;;;;5.3;2.5;;;;;;;18.18;52.02246;966.0944;;;;
2019/06/09 07:05:40;;;;;;;5.8;2.7;;;;;;;18.06;53.53223;966.1133;;;;
2019/06/09 07:08:14;;;;;;;4.1;2.5;;;;;;;18.15;52.01953;966.1141;;;;
2019/06/09 07:10:36;;;;;;;3.8;2.4;;;;;;;18.07;52.73633;966.0779;;;;
2019/06/09 07:13:01;;;;;;;4.7;2.4;;;;;;;18.03;53.66797;966.0184;;;;
2019/06/09 07:15:29;;;;;;;4.6;2.1;;;;;;;18.03;53.08301;966.0399;;;;
2019/06/09 07:17:54;;;;;;;5.4;2;;;;;;;18.19;53.46484;965.9683;;;;
2019/06/09 07:20:19;;;;;;;3.6;1.8;;;;;;;18.32;53.46973;965.9103;;;;
2019/06/09 07:22:44;;;;;;;4.9;2.2;;;;;;;18.4;52.53027;965.8962;;;;
2019/06/09 07:25:12;;;;;;;4.3;1.9;;;;;;;18.6;51.7334;965.8437;;;;
2019/06/09 07:27:41;;;;;;;3.2;1.9;;;;;;;18.74;51.39746;965.8586;;;;
2019/06/09 07:30:06;;;;;;;3.7;2;;;;;;;18.98;50.20508;965.7894;;;;
2019/06/09 07:32:31;;;;;;;3.6;2.1;;;;;;;19.21;50.40723;965.7662;;;;
2019/06/09 07:34:56;;;;;;;4.2;1.9;;;;;;;19.21;50.23145;965.6875;;;;
2019/06/09 07:37:21;;;;;;;3.1;1.9;;;;;;;19.33;47.59082;965.6969;;;;
2019/06/09 07:39:46;;;;;;;3.9;2.1;;;;;;;19.47;47.74805;965.7043;;;;
2019/06/09 07:42:11;;;;;;;3.3;2;;;;;;;19.66;47.48633;965.6861;;;;
2019/06/09 07:44:36;;;;;;;4.7;2.1;;;;;;;19.67;46.79395;965.6479;;;;
2019/06/09 07:47:02;;;;;;;3.7;2;;;;;;;19.81;46.63281;965.6801;;;;
2019/06/09 07:49:27;;;;;;;2.9;1.8;;;;;;;19.82;46.23242;965.7007;;;;
2019/06/09 07:51:54;;;;;;;3.5;1.7;;;;;;;19.93;46.16406;965.6667;;;;
2019/06/09 07:54:23;;;;;;;5.4;1.9;;;;;;;19.9;46.53613;965.6603;;;;
2019/06/09 07:56:48;;;;;;;5.1;1.7;;;;;;;19.92;45.91406;965.608;;;;
2019/06/09 07:59:13;;;;;;;4.8;2.2;;;;;;;19.87;44.7793;965.5094;;;;
2019/06/09 08:01:38;;;;;;;5;1.6;;;;;;;19.89;45.20703;965.5165;;;;
2019/06/09 08:04:03;;;;;;;5.5;1.6;;;;;;;20.09;44.58008;965.4958;;;;
2019/06/09 08:06:39;;;;;;;5;1.9;;;;;;;20.22;44.3457;965.4192;;;;
2019/06/09 08:09:04;;;;;;;3.4;1.7;;;;;;;20.49;42.60645;965.3561;;;;
2019/06/09 08:11:32;;;;;;;3.4;1.7;;;;;;;20.48;44.14746;965.3273;;;;
2019/06/09 08:13:58;;;;;;;6.4;1.8;;;;;;;20.55;42.97754;965.3071;;;;
2019/06/09 08:16:23;;;;;;;4.1;1.9;;;;;;;20.53;42.58691;965.3205;;;;
2019/06/09 08:18:48;;;;;;;3.8;1.9;;;;;;;20.5;42.84375;965.3312;;;;
2019/06/09 08:21:13;;;;;;;4.9;1.8;;;;;;;20.51;41.33789;965.3351;;;;
2019/06/09 08:23:42;;;;;;;4.5;1.9;;;;;;;20.44;41.44824;965.3228;;;;
2019/06/09 08:26:07;;;;;;;3.4;1.8;;;;;;;20.38;42.52539;965.2515;;;;
2019/06/09 08:28:36;;;;;;;4.4;1.8;;;;;;;20.54;41.06934;965.2325;;;;
2019/06/09 08:31:07;;;;;;;3.8;1.7;;;;;;;20.46;40.70801;965.1968;;;;
2019/06/09 08:33:32;;;;;;;4.5;1.7;;;;;;;20.45;41.27246;965.1859;;;;
2019/06/09 08:35:57;;;;;;;4.6;1.9;;;;;;;20.58;41.49707;965.2497;;;;
2019/06/09 08:38:41;;;;;;;3.7;2;;;;;;;20.69;41.80176;965.2598;;;;
2019/06/09 08:41:08;;;;;;;3.4;1.8;;;;;;;20.7;41.625;965.3259;;;;
2019/06/09 08:43:33;;;;;;;3.6;1.8;;;;;;;20.75;41.19531;965.3485;;;;
2019/06/09 08:45:58;;;;;;;4.6;2;;;;;;;20.76;40.85352;965.4189;;;;
2019/06/09 08:48:23;;;;;;;5.9;1.9;;;;;;;20.8;41.87109;965.4351;;;;
2019/06/09 08:50:49;;;;;;;3.3;1.8;;;;;;;20.8;41.76465;965.4036;;;;
2019/06/09 08:53:14;;;;;;;6.7;2.1;;;;;;;20.8;42.27148;965.3762;;;;
2019/06/09 08:55:40;;;;;;;3.6;1.9;;;;;;;20.81;42.10645;965.3148;;;;
2019/06/09 08:58:05;;;;;;;3.7;2;;;;;;;20.98;42.26465;965.3617;;;;
2019/06/09 09:00:30;;;;;;;4.5;2;;;;;;;20.99;43.62109;965.412;;;;
2019/06/09 09:02:56;;;;;;;5;2;;;;;;;21.08;43.12402;965.3993;;;;
2019/06/09 09:05:21;;;;;;;5;2.2;;;;;;;21.19;42.80469;965.5082;;;;
2019/06/09 09:07:46;;;;;;;4.6;2.1;;;;;;;21.29;41.77539;965.5069;;;;
2019/06/09 09:10:11;;;;;;;2.7;1.7;;;;;;;21.29;43.93457;965.443;;;;
2019/06/09 09:12:36;;;;;;;4.2;2;;;;;;;21.25;42.46777;965.4543;;;;
2019/06/09 09:15:01;;;;;;;5.1;2.3;;;;;;;21.39;42.1748;965.4462;;;;
2019/06/09 09:17:26;;;;;;;4.1;2;;;;;;;21.47;42.5127;965.44;;;;
2019/06/09 09:19:52;;;;;;;6.3;2;;;;;;;21.53;41.69238;965.4632;;;;
2019/06/09 09:22:18;;;;;;;7.1;2.2;;;;;;;21.53;41.85742;965.4905;;;;
2019/06/09 09:24:44;;;;;;;4.8;2.1;;;;;;;21.68;40.90332;965.4983;;;;
2019/06/09 09:27:09;;;;;;;3.9;2;;;;;;;21.79;41.39844;965.4858;;;;
2019/06/09 09:29:34;;;;;;;5.5;2.2;;;;;;;21.73;40.84961;965.4553;;;;
2019/06/09 09:31:59;;;;;;;4.5;1.9;;;;;;;21.79;42.27148;965.4344;;;;
2019/06/09 09:34:24;;;;;;;4.7;2.1;;;;;;;21.96;42.33496;965.4219;;;;
2019/06/09 09:36:50;;;;;;;3.8;2;;;;;;;22.09;42.60742;965.4189;;;;
2019/06/09 09:39:15;;;;;;;5.2;1.9;;;;;;;22.14;43.13184;965.4082;;;;
2019/06/09 09:41:40;;;;;;;6.1;2.3;;;;;;;22.03;42.3418;965.2879;;;;
2019/06/09 09:44:05;;;;;;;3.6;2;;;;;;;22.21;41.89746;965.2327;;;;
2019/06/09 09:46:30;;;;;;;5.4;2.1;;;;;;;22.16;42.1416;965.1593;;;;
2019/06/09 09:48:56;;;;;;;3.6;2.1;;;;;;;22.16;42.36523;965.1136;;;;
2019/06/09 09:51:21;;;;;;;4.7;2.6;;;;;;;22.16;41.83301;965.0133;;;;
2019/06/09 09:53:46;;;;;;;4.8;2;;;;;;;22.28;42.7793;964.9781;;;;
2019/06/09 09:56:11;;;;;;;5.1;2;;;;;;;22.23;43.94434;964.9459;;;;
2019/06/09 09:58:36;;;;;;;5.5;2.1;;;;;;;22.24;43.18848;964.9922;;;;
2019/06/09 10:01:01;;;;;;;3.7;2.1;;;;;;;22.34;43.29297;964.9978;;;;
2019/06/09 10:03:26;;;;;;;7.1;2.8;;;;;;;22.44;43.76367;965.0483;;;;
2019/06/09 10:05:51;;;;;;;4;2.1;;;;;;;22.8;42.13086;965.1055;;;;
2019/06/09 10:08:16;;;;;;;5.9;2.4;;;;;;;22.61;42.81055;965.0682;;;;
2019/06/09 10:10:42;;;;;;;4;2.2;;;;;;;22.85;41.69922;965.008;;;;
2019/06/09 10:13:07;;;;;;;4.3;1.9;;;;;;;22.88;42.31641;964.9855;;;;
2019/06/09 10:15:34;;;;;;;4.4;2.3;;;;;;;22.56;41.63574;964.9397;;;;
2019/06/09 10:17:59;;;;;;;4.4;2.2;;;;;;;22.66;42.24805;964.9509;;;;
2019/06/09 10:20:24;;;;;;;6.9;2.3;;;;;;;22.84;42.40625;964.9891;;;;
2019/06/09 10:22:49;;;;;;;4.4;2.3;;;;;;;22.98;41.94727;964.9556;;;;
2019/06/09 10:25:16;;;;;;;5;2.2;;;;;;;22.99;41.65137;964.9247;;;;
2019/06/09 10:27:41;;;;;;;3.4;1.9;;;;;;;23.31;41.91895;964.8628;;;;
2019/06/09 10:30:06;;;;;;;4;2.1;;;;;;;23.38;41.10742;964.8412;;;;
2019/06/09 10:32:31;;;;;;;4.1;2.2;;;;;;;23.23;41.60352;964.7961;;;;
2019/06/09 10:34:57;;;;;;;5.9;2.4;;;;;;;23.38;40.92969;964.8113;;;;
2019/06/09 10:37:26;;;;;;;4.3;2.5;;;;;;;23.58;40.96094;964.6808;;;;
2019/06/09 10:39:52;;;;;;;3.9;2.2;;;;;;;23.53;40.6582;964.6664;;;;
2019/06/09 10:42:17;;;;;;;3.8;2.3;;;;;;;23.54;40.06738;964.6708;;;;
2019/06/09 10:44:42;;;;;;;4.9;2.6;;;;;;;23.51;41.34473;964.6177;;;;
2019/06/09 10:47:07;;;;;;;5.3;2.3;;;;;;;23.71;41.12598;964.6755;;;;
2019/06/09 10:49:32;;;;;;;4.6;2.4;;;;;;;23.54;42.99512;964.5961;;;;
2019/06/09 10:51:57;;;;;;;4.8;2.5;;;;;;;23.47;41.875;964.5759;;;;
2019/06/09 10:54:22;;;;;;;5.1;2.7;;;;;;;23.73;41.6377;964.5361;;;;
2019/06/09 10:56:49;;;;;;;4.3;2.3;;;;;;;23.74;40.47754;964.5133;;;;
2019/06/09 10:59:19;;;;;;;5.1;3.3;;;;;;;23.72;40.2373;964.5014;;;;
2019/06/09 11:01:44;;;;;;;6.6;2.3;;;;;;;23.54;40.90918;964.5221;;;;
2019/06/09 11:04:09;;;;;;;3.7;2.3;;;;;;;23.67;41.33594;964.4592;;;;
2019/06/09 11:06:34;;;;;;;5.9;2.6;;;;;;;23.86;41.16309;964.3897;;;;
2019/06/09 11:08:59;;;;;;;4.6;2.7;;;;;;;23.62;41.67578;964.3061;;;;
2019/06/09 11:11:27;;;;;;;4.3;2.6;;;;;;;23.66;42.38965;964.2944;;;;
2019/06/09 11:13:52;;;;;;;3.9;2.5;;;;;;;24.01;42.50684;964.2058;;;;
2019/06/09 11:16:18;;;;;;;6.4;3.1;;;;;;;24.13;40.71387;964.2444;;;;
2019/06/09 11:18:43;;;;;;;6.9;4;;;;;;;23.96;40.30664;964.1606;;;;
2019/06/09 11:21:27;;;;;;;4.3;2.2;;;;;;;23.96;40.33105;964.1381;;;;
2019/06/09 11:23:52;;;;;;;4.8;2.4;;;;;;;23.89;39.86035;964.1275;;;;
2019/06/09 11:26:17;;;;;;;5.5;3.2;;;;;;;23.99;40.72363;964.1456;;;;
2019/06/09 11:28:42;;;;;;;4.6;2.3;;;;;;;23.88;41.78223;964.1153;;;;
2019/06/09 11:31:07;;;;;;;5.2;2.1;;;;;;;23.87;42.71777;964.1195;;;;
2019/06/09 11:33:33;;;;;;;5;2.5;;;;;;;23.96;40.40137;964.1022;;;;
2019/06/09 11:35:58;;;;;;;4.3;2.1;;;;;;;23.77;40.69336;963.968;;;;
2019/06/09 11:38:23;;;;;;;4.8;2.2;;;;;;;24.03;40.99023;963.9456;;;;
2019/06/09 11:40:48;;;;;;;4;2.1;;;;;;;24.23;40.81836;963.9998;;;;
2019/06/09 11:43:15;;;;;;;3.6;2;;;;;;;24.4;40.57129;963.9213;;;;
2019/06/09 11:45:40;;;;;;;5;2.4;;;;;;;24.62;40.05762;963.8567;;;;
2019/06/09 11:48:05;;;;;;;6.5;2.3;;;;;;;24.9;39.04785;963.8726;;;;
2019/06/09 11:50:30;;;;;;;5.2;2.5;;;;;;;24.5;39.47656;963.8868;;;;
2019/06/09 11:52:56;;;;;;;4.3;2.2;;;;;;;24.69;40.3252;963.8005;;;;
2019/06/09 11:55:21;;;;;;;7.4;2.4;;;;;;;24.52;40.88086;963.842;;;;
2019/06/09 11:57:46;;;;;;;5.3;2.5;;;;;;;24.46;41.27832;963.8364;;;;
2019/06/09 12:00:11;;;;;;;5.1;2.6;;;;;;;24.65;39.90527;963.8325;;;;
2019/06/09 12:02:36;;;;;;;4.5;2.5;;;;;;;24.72;39.79297;963.7903;;;;
2019/06/09 12:05:01;;;;;;;5;2.4;;;;;;;25.11;41.07813;963.7173;;;;
2019/06/09 12:07:26;;;;;;;4.4;2.3;;;;;;;25.18;40.12012;963.7349;;;;
2019/06/09 12:09:51;;;;;;;9.1;2.7;;;;;;;25.01;41.22266;963.7717;;;;
2019/06/09 12:12:17;;;;;;;5.6;2.5;;;;;;;24.95;39.59961;963.7033;;;;
2019/06/09 12:14:42;;;;;;;4.5;2.3;;;;;;;25.18;39.96484;963.6945;;;;
2019/06/09 12:17:07;;;;;;;5;2.4;;;;;;;25.1;39.68457;963.6886;;;;
2019/06/09 12:19:32;;;;;;;5.1;2.2;;;;;;;25.32;39.23926;963.7972;;;;
2019/06/09 12:21:57;;;;;;;4.2;2.3;;;;;;;24.95;42.27539;963.79;;;;
2019/06/09 12:24:22;;;;;;;5.4;2.4;;;;;;;25.15;39.78418;963.7058;;;;
2019/06/09 12:26:47;;;;;;;5.8;2.3;;;;;;;25.27;39.37793;963.6559;;;;
2019/06/09 12:29:13;;;;;;;4.4;2.6;;;;;;;25.46;38.65723;963.6882;;;;
2019/06/09 12:31:39;;;;;;;7;2.8;;;;;;;25.58;40.38184;963.6984;;;;
2019/06/09 12:34:04;;;;;;;5.7;2.6;;;;;;;25.87;38.01172;963.6847;;;;
2019/06/09 12:36:29;;;;;;;6.4;2.4;;;;;;;25.89;38.84961;963.6795;;;;
2019/06/09 12:38:55;;;;;;;4.8;2.6;;;;;;;25.79;38.69727;963.6595;;;;
2019/06/09 12:41:20;;;;;;;7.3;2.7;;;;;;;25.54;39.02051;963.6519;;;;
2019/06/09 12:43:45;;;;;;;5.3;2.3;;;;;;;25.3;40.34473;963.6631;;;;
2019/06/09 12:46:11;;;;;;;4.8;2.4;;;;;;;25.31;39.03613;963.6505;;;;
2019/06/09 12:48:36;;;;;;;3.8;2.3;;;;;;;24.89;40.11816;963.6395;;;;
2019/06/09 12:51:01;;;;;;;5.8;2.7;;;;;;;25.16;40.99805;963.6443;;;;
2019/06/09 12:53:26;;;;;;;5.5;2.6;;;;;;;25.59;38.8584;963.6986;;;;
2019/06/09 12:55:51;;;;;;;5.2;2.6;;;;;;;25.36;40.7666;963.6528;;;;
2019/06/09 12:58:17;;;;;;;4.1;2.4;;;;;;;25.52;40.42383;963.6461;;;;
2019/06/09 13:00:42;;;;;;;4.8;2.3;;;;;;;24.87;40.21094;963.6197;;;;
2019/06/09 13:03:10;;;;;;;5.5;2.7;;;;;;;24.78;39.16895;963.6559;;;;
2019/06/09 13:05:35;;;;;;;3.8;2.4;;;;;;;24.9;39.94043;963.6855;;;;
2019/06/09 13:08:00;;;;;;;4.8;2.4;;;;;;;25.22;39.82617;963.6283;;;;
2019/06/09 13:10:25;;;;;;;4;2.7;;;;;;;25.12;38.16309;963.6121;;;;
2019/06/09 13:12:52;;;;;;;4.8;2.3;;;;;;;25.68;37.63867;963.6776;;;;
2019/06/09 13:15:17;;;;;;;4.2;2.4;;;;;;;25.65;37.57715;963.7192;;;;
2019/06/09 13:17:43;;;;;;;5.6;2.9;;;;;;;26.15;37.47656;963.769;;;;
2019/06/09 13:20:08;;;;;;;4.6;2.3;;;;;;;26.39;37.47266;963.7095;;;;
2019/06/09 13:22:33;;;;;;;5.4;2.7;;;;;;;26.18;35.37988;963.7254;;;;
2019/06/09 13:25:02;;;;;;;6.6;2.8;;;;;;;26.12;36.38867;963.7651;;;;
2019/06/09 13:27:27;;;;;;;5;2.5;;;;;;;26.04;36.51367;963.7431;;;;
2019/06/09 13:29:52;;;;;;;4.1;2.5;;;;;;;26.01;37.05957;963.7029;;;;
2019/06/09 13:32:17;;;;;;;3.4;2.4;;;;;;;26.13;37.96289;963.7087;;;;
2019/06/09 13:34:42;;;;;;;5.2;2.8;;;;;;;25.83;37.4375;963.6953;;;;
2019/06/09 13:37:08;;;;;;;6.6;2.9;;;;;;;25.99;37.80859;963.7097;;;;
2019/06/09 13:39:33;;;;;;;4.4;2.6;;;;;;;25.68;37.49609;963.6125;;;;
2019/06/09 13:42:02;;;;;;;6.1;2.6;;;;;;;25.79;38.94727;963.587;;;;
2019/06/09 13:44:27;;;;;;;4.3;2.4;;;;;;;25.75;38.71777;963.5003;;;;
2019/06/09 13:46:52;;;;;;;5.1;2.7;;;;;;;25.55;38.58105;963.4456;;;;
2019/06/09 13:49:17;;;;;;;3.8;2.4;;;;;;;25.43;38.54688;963.4097;;;;
2019/06/09 13:51:43;;;;;;;4.7;2.6;;;;;;;25.4;40.21094;963.3981;;;;
2019/06/09 13:54:08;;;;;;;4.3;2.4;;;;;;;25.85;37.24902;963.4121;;;;
2019/06/09 13:56:33;;;;;;;5.4;2.5;;;;;;;25.66;40.5918;963.4976;;;;
2019/06/09 13:58:59;;;;;;;6.7;3.1;;;;;;;25.3;38.08301;963.5541;;;;
2019/06/09 14:01:24;;;;;;;4.8;2.5;;;;;;;25.17;39.48828;963.4747;;;;
2019/06/09 14:03:49;;;;;;;4.9;2.6;;;;;;;25.06;39.40723;963.4476;;;;
2019/06/09 14:06:14;;;;;;;5.3;2.9;;;;;;;24.96;39.57715;963.5187;;;;
2019/06/09 14:08:39;;;;;;;4.9;2.6;;;;;;;25.16;39.01172;963.4551;;;;
2019/06/09 14:11:04;;;;;;;4.6;2.4;;;;;;;25.2;39.11035;963.4079;;;;
2019/06/09 14:13:30;;;;;;;9.1;6.9;;;;;;;25.21;38.56348;963.3898;;;;
2019/06/09 14:15:55;;;;;;;9.9;6.9;;;;;;;25.06;39.76465;963.3558;;;;
2019/06/09 14:18:20;;;;;;;5.6;4.8;;;;;;;25.13;41.86328;963.3627;;;;
2019/06/09 14:20:45;;;;;;;6.2;3.3;;;;;;;25.08;43.72754;963.3472;;;;